Time;durP1;ratioP1;P1;durP2;ratioP2;P2;SDS_P1;SDS_P2;PMS_P1;PMS_P2;Temp;Humidity;BMP_temperature;BMP_pressure;BME280_temperature;BME280_humidity;BME280_pressure;Samples;Min_cycle;Max_cycle;Signal;HPM_P1;HPM_P2
2021/03/22 00:01:23;;;;;;;20.73;11.03;;;;;;;1.00;64.20;99270.02;1740584;80;21184;-74
2021/03/22 00:03:52;;;;;;;17.10;9.30;;;;;;;1.00;64.78;99271.38;1745845;80;21592;-81
2021/03/22 00:06:20;;;;;;;;;;;;;;;0.99;64.64;99271.88;1707390;82;21156;-83
2021/03/22 00:08:48;;;;;;;16.43;8.93;;;;;;;0.98;64.18;99270.25;1746148;80;20167;-82
2021/03/22 00:11:16;;;;;;;16.67;8.77;;;;;;;0.98;64.31;99274.80;1736812;82;21319;-82
2021/03/22 00:13:44;;;;;;;18.23;9.18;;;;;;;0.96;64.39;99264.76;1719482;82;21284;-80
2021/03/22 00:16:14;;;;;;;17.07;9.13;;;;;;;0.95;64.08;99271.17;1726616;82;21742;-80
2021/03/22 00:18:44;;;;;;;18.07;9.37;;;;;;;0.95;64.48;99261.75;1716220;81;21153;-74
2021/03/22 00:21:13;;;;;;;15.88;8.80;;;;;;;0.94;64.49;99260.91;1740588;81;21163;-79
2021/03/22 00:23:41;;;;;;;21.07;9.80;;;;;;;0.96;64.50;99253.98;1734769;82;21192;-73
2021/03/22 00:26:10;;;;;;;18.62;9.75;;;;;;;0.94;64.39;99254.17;1736170;81;21298;-72
2021/03/22 00:28:40;;;;;;;21.50;9.70;;;;;;;0.93;64.53;99257.09;1711705;82;21128;-81
2021/03/22 00:31:13;;;;;;;24.13;10.53;;;;;;;0.92;64.60;99256.27;1732615;82;21162;-75
2021/03/22 00:33:42;;;;;;;18.30;9.77;;;;;;;0.93;64.55;99257.09;1736552;82;21564;-74
2021/03/22 00:36:11;;;;;;;22.57;10.47;;;;;;;0.92;65.04;99258.12;1732392;82;21584;-75
2021/03/22 00:38:40;;;;;;;20.73;9.60;;;;;;;0.91;64.84;99256.48;1737036;81;21196;-74
2021/03/22 00:41:08;;;;;;;19.20;9.90;;;;;;;0.91;65.13;99255.14;1713623;81;21229;-73
2021/03/22 00:43:37;;;;;;;20.83;10.47;;;;;;;0.90;65.06;99245.39;1717284;81;21537;-83
2021/03/22 00:46:07;;;;;;;19.13;10.50;;;;;;;0.90;64.99;99248.08;1750674;81;21192;-82
2021/03/22 00:48:36;;;;;;;20.17;9.93;;;;;;;0.89;64.89;99249.11;1731245;81;21152;-81
2021/03/22 00:51:06;;;;;;;;;;;;;;;0.88;65.29;99241.57;1736289;82;21763;-75
2021/03/22 00:53:35;;;;;;;21.97;10.83;;;;;;;0.88;65.15;99240.73;1735506;81;20188;-81
2021/03/22 00:56:03;;;;;;;20.72;10.18;;;;;;;0.88;64.98;99243.43;1723275;83;21125;-82
2021/03/22 00:58:31;;;;;;;;;;;;;;;0.89;65.17;99246.41;1703586;82;21304;-81
2021/03/22 01:00:59;;;;;;;20.05;10.68;;;;;;;0.88;65.23;99242.91;1683072;82;20222;-78
2021/03/22 01:03:30;;;;;;;18.83;10.27;;;;;;;0.88;65.16;99244.27;1714820;81;21195;-81
2021/03/22 01:05:59;;;;;;;20.73;10.53;;;;;;;0.88;65.26;99241.57;1726592;81;21282;-74
2021/03/22 01:08:30;;;;;;;17.10;9.83;;;;;;;0.88;65.16;99233.48;1718564;82;21169;-72
2021/03/22 01:11:10;;;;;;;19.67;10.50;;;;;;;0.86;65.15;99237.44;1745847;81;21188;-73
2021/03/22 01:13:41;;;;;;;;;;;;;;;0.85;65.56;99237.11;1731681;81;21183;-74
2021/03/22 01:16:11;;;;;;;18.57;9.67;;;;;;;0.84;65.60;99236.80;1724855;81;20191;-74
2021/03/22 01:18:43;;;;;;;22.43;9.60;;;;;;;0.82;65.65;99238.87;1720876;81;21234;-83
2021/03/22 01:21:22;;;;;;;18.10;9.70;;;;;;;0.80;65.49;99234.22;1738826;81;21671;-82
2021/03/22 01:23:50;;;;;;;17.13;9.53;;;;;;;0.79;65.73;99236.59;1730779;81;21567;-82
2021/03/22 01:26:24;;;;;;;17.92;8.98;;;;;;;0.76;65.99;99233.80;1728157;81;21160;-82
2021/03/22 01:28:53;;;;;;;15.60;8.90;;;;;;;0.73;66.07;99231.56;1737847;82;21167;-84
2021/03/22 01:31:24;;;;;;;17.70;9.83;;;;;;;0.72;66.23;99233.09;1749382;80;21175;-81
2021/03/22 01:33:53;;;;;;;17.50;9.30;;;;;;;0.70;66.44;99228.45;1779655;80;21611;-77
2021/03/22 01:36:27;;;;;;;21.73;9.87;;;;;;;0.70;66.37;99231.97;1751184;80;21159;-77
2021/03/22 01:38:59;;;;;;;21.73;10.53;;;;;;;0.68;66.71;99234.05;1742401;80;21175;-84
2021/03/22 01:41:50;;;;;;;23.90;10.83;;;;;;;0.66;66.52;99229.91;1721589;80;21180;-85
2021/03/22 01:44:30;;;;;;;19.47;10.17;;;;;;;0.63;66.47;99232.52;1731481;80;21120;-76
2021/03/22 01:47:10;;;;;;;18.80;9.70;;;;;;;0.62;66.78;99222.25;1729527;80;21616;-82
2021/03/22 01:49:43;;;;;;;14.83;8.50;;;;;;;0.60;66.63;99221.64;1716364;80;21277;-75
2021/03/22 01:52:11;;;;;;;15.13;8.93;;;;;;;0.58;66.92;99221.00;1722120;80;21199;-74
2021/03/22 01:54:39;;;;;;;;;;;;;;;0.55;66.72;99212.02;1736528;82;21652;-84
2021/03/22 01:57:39;;;;;;;20.32;9.55;;;;;;;0.54;67.05;99212.20;1720275;80;20220;-80
2021/03/22 02:00:17;;;;;;;20.17;9.57;;;;;;;0.51;67.29;99210.77;1662951;85;21168;-86
2021/03/22 02:02:46;;;;;;;19.33;10.37;;;;;;;0.48;67.33;99207.68;1699733;81;21164;-84
2021/03/22 02:05:20;;;;;;;19.57;10.33;;;;;;;0.45;67.34;99210.27;1741536;81;21632;-76
2021/03/22 02:08:05;;;;;;;19.53;10.57;;;;;;;0.44;67.57;99210.46;1783948;78;21128;-83
2021/03/22 02:10:34;;;;;;;20.47;10.87;;;;;;;0.40;67.54;99206.03;1724316;82;21132;-75
2021/03/22 02:13:04;;;;;;;19.83;11.03;;;;;;;0.38;67.74;99205.39;1733244;80;21147;-76
2021/03/22 02:15:32;;;;;;;23.40;11.00;;;;;;;0.35;67.63;99206.34;1741390;80;21159;-75
2021/03/22 02:18:24;;;;;;;19.67;11.00;;;;;;;0.29;67.78;99203.96;1744145;80;21711;-82
2021/03/22 02:21:41;;;;;;;23.40;12.27;;;;;;;0.26;68.40;99200.85;1744019;80;21215;-77
2021/03/22 02:24:48;;;;;;;25.07;13.47;;;;;;;0.20;68.61;99197.16;1754408;80;21184;-77
2021/03/22 02:27:33;;;;;;;25.40;13.43;;;;;;;0.15;68.77;99198.80;1747340;80;21566;-87
2021/03/22 02:30:25;;;;;;;25.10;13.37;;;;;;;0.08;68.88;99196.64;1737158;80;21167;-85
2021/03/22 02:33:31;;;;;;;27.33;14.67;;;;;;;0.02;69.12;99190.22;1766839;80;21188;-75
2021/03/22 02:36:09;;;;;;;25.53;13.63;;;;;;;-0.03;69.00;99190.01;1739521;80;21162;-77
2021/03/22 02:38:48;;;;;;;21.87;12.68;;;;;;;-0.08;69.26;99192.49;1739285;80;21285;-83
2021/03/22 02:41:24;;;;;;;25.10;13.53;;;;;;;-0.12;69.58;99191.23;1751470;80;21143;-83
2021/03/22 02:44:05;;;;;;;25.40;13.67;;;;;;;-0.17;69.53;99189.67;1747973;80;21604;-79
2021/03/22 02:46:34;;;;;;;24.23;13.90;;;;;;;-0.21;69.60;99192.48;1735544;80;21239;-83
2021/03/22 02:49:06;;;;;;;27.47;13.90;;;;;;;-0.25;70.08;99197.94;1732356;80;21625;-86
2021/03/22 02:52:07;;;;;;;22.97;12.23;;;;;;;-0.30;70.11;99190.48;1734172;81;21510;-82
2021/03/22 02:54:44;;;;;;;22.03;12.80;;;;;;;-0.33;70.20;99190.09;1704391;82;22617;-76
2021/03/22 02:57:27;;;;;;;22.20;12.97;;;;;;;-0.38;70.38;99201.97;1743142;82;21259;-80
2021/03/22 02:59:59;;;;;;;22.73;13.10;;;;;;;-0.43;70.62;99201.76;1654003;80;21298;-89
2021/03/22 03:02:30;;;;;;;25.13;13.63;;;;;;;-0.48;70.96;99200.20;1729662;80;21160;-80
2021/03/22 03:05:13;;;;;;;26.47;12.97;;;;;;;-0.51;70.99;99202.77;1694137;82;21151;-84
2021/03/22 03:07:40;;;;;;;22.70;12.83;;;;;;;-0.54;71.14;99202.34;1691062;84;21155;-83
2021/03/22 03:10:10;;;;;;;22.50;13.13;;;;;;;-0.57;71.21;99202.73;1730072;80;21624;-79
2021/03/22 03:12:38;;;;;;;22.27;13.10;;;;;;;-0.59;71.37;99199.43;1710892;83;21142;-85
2021/03/22 03:15:08;;;;;;;25.57;13.70;;;;;;;-0.63;71.59;99192.82;1735116;81;21181;-85
2021/03/22 03:17:38;;;;;;;28.73;14.27;;;;;;;-0.67;71.49;99197.76;1722732;82;21173;-88
2021/03/22 03:20:10;;;;;;;25.55;13.53;;;;;;;-0.70;71.37;99193.62;1736999;82;21272;-87
2021/03/22 03:22:40;;;;;;;22.53;12.60;;;;;;;-0.73;71.80;99199.39;1725700;81;21133;-86
2021/03/22 03:25:10;;;;;;;22.43;12.93;;;;;;;-0.77;71.80;99206.20;1715816;81;21173;-86
2021/03/22 03:27:38;;;;;;;26.00;13.30;;;;;;;-0.80;71.61;99201.23;1705907;81;21199;-86
2021/03/22 03:30:13;;;;;;;21.33;10.75;;;;;;;-0.81;71.97;99198.77;1738231;82;21141;-79
2021/03/22 03:32:41;;;;;;;23.90;11.50;;;;;;;-0.83;71.91;99201.63;1723795;81;21214;-86
2021/03/22 03:35:12;;;;;;;21.83;11.70;;;;;;;-0.85;72.01;99196.14;1713549;84;21137;-77
2021/03/22 03:37:40;;;;;;;23.80;13.23;;;;;;;-0.87;71.99;99189.64;1716067;81;21551;-76
2021/03/22 03:40:19;;;;;;;25.60;14.25;;;;;;;-0.90;71.99;99191.38;1690539;82;21196;-77
2021/03/22 03:42:47;;;;;;;26.23;15.47;;;;;;;-0.91;71.93;99197.77;1727500;80;21169;-76
2021/03/22 03:45:15;;;;;;;25.08;14.45;;;;;;;-0.93;72.16;99198.49;1722941;83;21179;-76
2021/03/22 03:47:44;;;;;;;23.60;13.83;;;;;;;-0.95;72.44;99203.24;1729877;82;21171;-86
2021/03/22 03:50:16;;;;;;;22.05;12.35;;;;;;;-0.96;72.58;99197.55;1693361;83;21167;-86
2021/03/22 03:52:44;;;;;;;25.20;13.80;;;;;;;-0.96;72.67;99201.57;1713198;82;21872;-76
2021/03/22 03:55:15;;;;;;;25.93;14.40;;;;;;;-0.98;72.73;99199.61;1723844;83;21163;-86
2021/03/22 03:57:48;;;;;;;25.73;14.57;;;;;;;-0.99;72.43;99199.31;1749672;80;21150;-88
2021/03/22 04:00:27;;;;;;;31.97;15.73;;;;;;;-1.02;72.42;99194.34;1757405;81;21564;-86
2021/03/22 04:02:56;;;;;;;29.53;15.60;;;;;;;-1.04;72.58;99195.06;1737316;82;21316;-76
2021/03/22 04:05:27;;;;;;;29.20;14.63;;;;;;;-1.06;72.73;99202.45;1708609;81;21191;-86
2021/03/22 04:07:55;;;;;;;32.13;16.27;;;;;;;-1.07;73.03;99195.45;1732096;82;21146;-77
2021/03/22 04:10:23;;;;;;;28.95;14.35;;;;;;;-1.07;73.04;99187.91;1726468;81;21212;-76
2021/03/22 04:12:51;;;;;;;24.80;13.65;;;;;;;-1.10;72.86;99187.79;1727096;82;21149;-84
2021/03/22 04:15:18;;;;;;;27.67;14.13;;;;;;;-1.09;72.87;99179.23;1708203;81;21213;-79
2021/03/22 04:17:47;;;;;;;24.85;14.33;;;;;;;-1.09;72.90;99188.62;1708983;84;21277;-76
2021/03/22 04:20:17;;;;;;;25.17;13.70;;;;;;;-1.09;73.17;99176.55;1708914;81;21177;-84
2021/03/22 04:22:45;;;;;;;28.00;14.03;;;;;;;-1.10;72.95;99181.08;1736876;82;21261;-76
2021/03/22 04:25:14;;;;;;;27.33;14.33;;;;;;;-1.09;73.12;99182.75;1721567;81;21181;-76
2021/03/22 04:27:43;;;;;;;25.93;13.90;;;;;;;-1.08;73.11;99188.41;1728482;83;21161;-85
2021/03/22 04:30:12;;;;;;;26.85;14.33;;;;;;;-1.07;73.11;99187.91;1725692;81;21462;-76
2021/03/22 04:32:40;;;;;;;27.23;14.27;;;;;;;-1.04;73.37;99191.54;1704022;83;21273;-87
2021/03/22 04:35:10;;;;;;;27.00;14.90;;;;;;;-1.04;73.13;99193.72;1724977;81;21225;-79
2021/03/22 04:37:42;;;;;;;25.87;14.30;;;;;;;-1.02;73.28;99195.68;1708491;84;21628;-77
2021/03/22 04:40:11;;;;;;;29.00;16.47;;;;;;;-1.00;73.20;99192.78;1711088;81;21228;-85
2021/03/22 04:42:39;;;;;;;31.33;17.03;;;;;;;-1.00;73.27;99193.62;1731567;82;21616;-78
2021/03/22 04:45:08;;;;;;;;;;;;;;;-0.98;73.26;99194.75;1714793;82;21198;-77
2021/03/22 04:47:36;;;;;;;26.12;14.23;;;;;;;-0.95;73.12;99197.88;1709062;81;20600;-77
2021/03/22 04:50:06;;;;;;;25.20;14.03;;;;;;;-0.95;73.06;99195.19;1708802;83;21197;-88
2021/03/22 04:52:33;;;;;;;24.93;13.73;;;;;;;-0.92;72.88;99194.79;1735991;80;21162;-89
2021/03/22 04:55:02;;;;;;;23.70;13.28;;;;;;;-0.91;72.64;99192.40;1739207;82;21163;-79
2021/03/22 04:57:32;;;;;;;24.23;13.27;;;;;;;-0.91;72.67;99195.09;1740965;80;21727;-80
2021/03/22 05:00:03;;;;;;;25.70;14.43;;;;;;;-0.90;72.74;99187.35;1708171;84;21195;-83
2021/03/22 05:02:31;;;;;;;28.47;14.67;;;;;;;-0.85;72.82;99179.52;1721345;81;21650;-80
2021/03/22 05:05:00;;;;;;;26.80;15.15;;;;;;;-0.81;72.57;99180.77;1719536;83;21277;-85
2021/03/22 05:07:28;;;;;;;29.45;15.60;;;;;;;-0.78;72.59;99176.33;1729053;81;21156;-87
2021/03/22 05:09:57;;;;;;;22.50;13.20;;;;;;;-0.72;72.46;99183.59;1747144;82;21281;-84
2021/03/22 05:12:25;;;;;;;23.98;12.82;;;;;;;-0.67;72.36;99181.64;1747580;81;21153;-78
2021/03/22 05:14:53;;;;;;;;;;;;;;;-0.63;72.33;99190.94;1751498;82;21180;-83
2021/03/22 05:17:21;;;;;;;28.70;14.75;;;;;;;-0.57;72.18;99187.95;1724387;81;20556;-85
2021/03/22 05:19:49;;;;;;;24.35;13.80;;;;;;;-0.53;71.92;99194.06;1733051;82;21121;-80
2021/03/22 05:22:17;;;;;;;32.20;15.38;;;;;;;-0.50;71.92;99188.28;1723464;82;21166;-83
2021/03/22 05:24:46;;;;;;;26.65;14.45;;;;;;;-0.43;71.70;99192.34;1714899;82;21593;-83
2021/03/22 05:27:14;;;;;;;27.58;13.62;;;;;;;-0.37;71.40;99194.20;1717932;81;21157;-76
2021/03/22 05:29:42;;;;;;;27.17;13.62;;;;;;;-0.31;71.16;99188.02;1705463;82;21211;-81
2021/03/22 05:32:32;;;;;;;28.67;14.80;;;;;;;-0.24;71.19;99184.81;1742038;80;21160;-84
2021/03/22 05:35:00;;;;;;;29.17;14.60;;;;;;;-0.17;71.19;99193.70;1713590;82;21137;-77
2021/03/22 05:37:28;;;;;;;33.65;17.55;;;;;;;-0.09;70.77;99184.94;1720238;81;21138;-79
2021/03/22 05:39:57;;;;;;;31.27;17.20;;;;;;;0.02;70.72;99180.80;1728717;82;21472;-79
2021/03/22 05:42:51;;;;;;;31.93;14.97;;;;;;;0.11;70.37;99180.06;1741958;81;21148;-78
2021/03/22 05:45:49;;;;;;;27.70;13.23;;;;;;;0.20;69.77;99187.73;1733606;80;21204;-80
2021/03/22 05:48:48;;;;;;;27.57;12.30;;;;;;;0.28;68.88;99191.53;1727523;82;21622;-80
2021/03/22 05:51:40;;;;;;;;;;;;;;;0.37;68.57;99198.38;1732487;80;21764;-83
2021/03/22 05:54:53;;;;;;;23.83;12.20;;;;;;;0.43;67.85;99197.52;1737512;80;20511;-76
2021/03/22 05:58:00;;;;;;;24.03;12.13;;;;;;;0.49;67.28;99199.38;1730965;80;21262;-82
2021/03/22 06:00:51;;;;;;;28.90;13.10;;;;;;;0.55;66.66;99194.52;1741982;80;21176;-80
2021/03/22 06:03:38;;;;;;;58.43;13.80;;;;;;;0.62;66.65;99195.33;1738227;82;21156;-80
2021/03/22 06:06:23;;;;;;;26.43;12.30;;;;;;;0.70;66.85;99196.97;1748721;80;21579;-71
2021/03/22 06:09:16;;;;;;;39.63;17.70;;;;;;;0.74;65.74;99198.19;1708480;83;21201;-80
2021/03/22 06:12:00;;;;;;;28.33;13.40;;;;;;;0.79;65.95;99194.34;1740604;80;21160;-79
2021/03/22 06:14:52;;;;;;;32.50;13.97;;;;;;;0.83;65.65;99190.20;1755219;80;21559;-79
2021/03/22 06:17:35;;;;;;;26.77;12.87;;;;;;;0.86;66.05;99183.02;1739233;80;21137;-76
2021/03/22 06:20:10;;;;;;;24.33;13.20;;;;;;;0.91;65.61;99179.71;1783136;80;21309;-76
2021/03/22 06:22:38;;;;;;;24.03;13.57;;;;;;;0.91;64.80;99177.02;1737449;81;21148;-79
2021/03/22 06:25:17;;;;;;;32.60;13.10;;;;;;;0.92;65.23;99180.00;1742834;82;21909;-77
2021/03/22 06:27:51;;;;;;;25.93;12.67;;;;;;;0.95;65.34;99183.62;1741663;80;21152;-77
2021/03/22 06:30:22;;;;;;;24.97;12.73;;;;;;;0.98;64.67;99192.12;1743302;82;21168;-78
2021/03/22 06:32:53;;;;;;;27.27;14.60;;;;;;;1.03;65.06;99187.43;1735207;80;21613;-78
2021/03/22 06:35:32;;;;;;;28.53;16.10;;;;;;;1.06;64.53;99193.20;1712050;82;21155;-78
2021/03/22 06:38:00;;;;;;;23.70;13.83;;;;;;;1.11;64.68;99190.69;1723266;80;21902;-76
2021/03/22 06:40:33;;;;;;;24.98;13.15;;;;;;;1.16;63.67;99194.12;1724165;82;21567;-77
2021/03/22 06:43:12;;;;;;;22.53;13.13;;;;;;;1.19;63.15;99187.76;1745908;80;21131;-77
2021/03/22 06:45:45;;;;;;;30.07;13.13;;;;;;;1.26;63.36;99191.24;1735631;80;21211;-78
2021/03/22 06:48:32;;;;;;;48.07;13.77;;;;;;;1.35;63.53;99195.88;1739528;80;21518;-79
2021/03/22 06:51:06;;;;;;;25.00;13.53;;;;;;;1.45;63.49;99196.23;1726224;80;21167;-78
2021/03/22 06:53:56;;;;;;;25.13;13.10;;;;;;;1.54;62.88;99197.66;1740343;80;21665;-83
2021/03/22 06:56:28;;;;;;;26.37;13.67;;;;;;;1.62;62.08;99198.73;1740965;80;21259;-87
2021/03/22 06:59:17;;;;;;;25.63;13.67;;;;;;;1.67;60.84;99195.41;1723792;80;21160;-78
2021/03/22 07:01:47;;;;;;;24.27;12.80;;;;;;;1.70;61.52;99200.34;1732751;82;21163;-80
2021/03/22 07:04:28;;;;;;;22.47;13.13;;;;;;;1.74;60.77;99201.58;1728738;80;21112;-80
2021/03/22 07:07:20;;;;;;;23.23;12.63;;;;;;;1.75;60.94;99200.00;1733157;82;21135;-82
2021/03/22 07:09:59;;;;;;;23.37;12.30;;;;;;;1.77;60.76;99198.45;1679799;83;21139;-79
2021/03/22 07:12:39;;;;;;;24.77;13.18;;;;;;;1.80;60.32;99203.38;1744144;80;21147;-91
2021/03/22 07:15:27;;;;;;;21.87;11.53;;;;;;;1.84;60.51;99204.62;1712617;81;21163;-78
2021/03/22 07:18:15;;;;;;;23.90;12.20;;;;;;;1.86;59.63;99193.91;1687705;84;21153;-91
2021/03/22 07:21:05;;;;;;;29.93;13.40;;;;;;;1.88;59.77;99203.13;1701473;82;21195;-79
2021/03/22 07:23:51;;;;;;;24.90;12.07;;;;;;;1.91;59.40;99205.39;1714238;83;21152;-80
2021/03/22 07:26:48;;;;;;;28.23;12.73;;;;;;;1.95;59.82;99201.75;1713025;81;21213;-88
2021/03/22 07:29:25;;;;;;;24.95;12.40;;;;;;;1.97;58.41;99201.00;1714091;81;21701;-79
2021/03/22 07:31:59;;;;;;;22.90;12.37;;;;;;;1.96;58.26;99203.38;1723869;82;21274;-88
2021/03/22 07:34:48;;;;;;;23.33;11.93;;;;;;;1.93;57.60;99196.55;1724007;82;21140;-89
2021/03/22 07:37:37;;;;;;;;;;;;;;;1.96;58.52;99193.94;1723420;82;21145;-78
2021/03/22 07:40:31;;;;;;;25.10;13.37;;;;;;;1.96;58.08;99197.98;1716864;81;20545;-88
2021/03/22 07:43:22;;;;;;;28.53;13.53;;;;;;;1.98;57.88;99195.89;1699264;83;21469;-86
2021/03/22 07:46:13;;;;;;;31.73;13.73;;;;;;;2.03;58.08;99192.84;1732686;81;21397;-80
2021/03/22 07:49:16;;;;;;;24.73;13.23;;;;;;;2.08;57.83;99190.83;1718623;82;21201;-79
2021/03/22 07:52:03;;;;;;;23.80;12.80;;;;;;;2.13;58.21;99192.34;1673519;84;21228;-86
2021/03/22 07:54:57;;;;;;;23.47;12.90;;;;;;;2.18;57.71;99192.51;1731196;83;21683;-78
2021/03/22 07:57:57;;;;;;;26.80;12.47;;;;;;;2.27;57.51;99193.91;1719434;81;21164;-79
2021/03/22 08:00:55;;;;;;;24.60;12.70;;;;;;;2.39;57.30;99188.91;1716152;82;21175;-89
2021/03/22 08:03:36;;;;;;;25.77;12.85;;;;;;;2.51;57.04;99180.38;1726509;82;21540;-89
2021/03/22 08:06:50;;;;;;;28.23;13.07;;;;;;;2.64;57.02;99178.06;1727594;82;21188;-79
2021/03/22 08:09:55;;;;;;;22.23;12.90;;;;;;;2.76;57.51;99173.56;1724541;82;21300;-89
2021/03/22 08:12:41;;;;;;;24.47;11.97;;;;;;;2.88;55.68;99172.30;1725935;81;21560;-87
2021/03/22 08:15:27;;;;;;;33.13;15.13;;;;;;;2.93;55.62;99177.34;1723677;82;21205;-79
2021/03/22 08:18:26;;;;;;;28.87;15.43;;;;;;;3.00;55.52;99169.14;1733841;81;21141;-85
2021/03/22 08:21:34;;;;;;;24.67;13.48;;;;;;;3.07;55.48;99167.17;1720935;81;21454;-79
2021/03/22 08:24:27;;;;;;;23.50;13.33;;;;;;;3.14;55.32;99157.93;1715701;81;21128;-90
2021/03/22 08:27:09;;;;;;;33.63;14.95;;;;;;;3.24;55.03;99159.29;1715802;84;21163;-87
2021/03/22 08:29:40;;;;;;;31.17;14.70;;;;;;;3.35;55.64;99154.44;1723245;81;21604;-78
2021/03/22 08:32:35;;;;;;;23.00;12.53;;;;;;;3.44;54.85;99149.02;1733677;82;21168;-93
2021/03/22 08:35:25;;;;;;;21.48;12.45;;;;;;;3.50;52.91;99146.22;1713649;81;21156;-83
2021/03/22 08:38:02;;;;;;;24.87;11.10;;;;;;;3.59;52.70;99148.08;1714266;81;21191;-81
2021/03/22 08:40:49;;;;;;;19.35;10.93;;;;;;;3.66;51.53;99137.98;1713673;83;21267;-81
2021/03/22 08:43:40;;;;;;;21.73;11.20;;;;;;;3.70;51.44;99136.45;1723458;81;21137;-79
2021/03/22 08:46:22;;;;;;;23.07;11.28;;;;;;;3.74;50.32;99126.27;1713272;84;21592;-78
2021/03/22 08:48:52;;;;;;;22.70;11.25;;;;;;;3.79;50.85;99126.95;1713898;81;21136;-81
2021/03/22 08:51:31;;;;;;;19.32;11.28;;;;;;;3.87;51.13;99121.73;1713583;83;21284;-80
2021/03/22 08:53:59;;;;;;;21.23;9.88;;;;;;;3.94;49.59;99127.34;1714059;81;21541;-79
2021/03/22 08:56:40;;;;;;;19.77;10.23;;;;;;;3.95;48.05;99119.48;1717903;83;21260;-80
2021/03/22 08:59:11;;;;;;;22.02;10.60;;;;;;;3.95;48.38;99115.98;1733986;81;21201;-77
2021/03/22 09:01:40;;;;;;;21.12;11.43;;;;;;;3.99;49.23;99111.73;1712596;84;21608;-78
2021/03/22 09:04:25;;;;;;;23.10;11.70;;;;;;;4.07;49.78;99109.52;1723458;81;21151;-79
2021/03/22 09:07:14;;;;;;;23.60;12.28;;;;;;;4.14;49.48;99111.58;1716563;83;21203;-79
2021/03/22 09:09:45;;;;;;;33.55;12.73;;;;;;;4.22;49.64;99112.59;1624129;82;21663;-79
2021/03/22 09:12:44;;;;;;;26.02;11.45;;;;;;;4.27;50.02;99109.17;1729280;83;21231;-77
2021/03/22 09:15:33;;;;;;;23.07;11.22;;;;;;;4.28;48.50;99107.56;1722553;82;21168;-78
2021/03/22 09:18:08;;;;;;;22.60;10.98;;;;;;;4.29;47.74;99108.39;1731010;83;21161;-80
2021/03/22 09:20:55;;;;;;;21.90;11.40;;;;;;;4.36;48.37;99097.73;1716961;81;21227;-79
2021/03/22 09:23:35;;;;;;;21.15;10.70;;;;;;;4.48;48.66;99103.13;1712610;84;21160;-79
2021/03/22 09:26:06;;;;;;;27.85;11.45;;;;;;;4.60;47.09;99094.48;1718147;81;21149;-80
2021/03/22 09:28:50;;;;;;;21.00;10.85;;;;;;;4.71;48.11;99091.42;1739432;82;21188;-80
2021/03/22 09:31:28;;;;;;;20.70;11.57;;;;;;;4.76;46.87;99092.89;1735740;81;21588;-80
2021/03/22 09:34:00;;;;;;;25.27;11.43;;;;;;;4.87;48.14;99087.98;1724126;83;21189;-79
2021/03/22 09:36:39;;;;;;;20.17;11.05;;;;;;;4.92;47.17;99085.38;1695084;81;21593;-78
2021/03/22 09:39:18;;;;;;;20.20;11.22;;;;;;;4.97;46.84;99082.77;1710954;83;21151;-79
2021/03/22 09:42:03;;;;;;;23.32;11.48;;;;;;;5.01;47.30;99082.56;1689208;81;21569;-80
2021/03/22 09:44:59;;;;;;;21.05;10.90;;;;;;;5.06;47.22;99085.38;1729741;82;21133;-78
2021/03/22 09:47:34;;;;;;;20.00;11.83;;;;;;;5.13;46.95;99091.50;1694084;81;21149;-79
2021/03/22 09:50:23;;;;;;;28.12;11.18;;;;;;;5.17;47.88;99092.66;1711080;84;21232;-78
2021/03/22 09:52:59;;;;;;;21.77;10.75;;;;;;;5.23;46.98;99093.05;1711876;81;21591;-78
2021/03/22 09:55:32;;;;;;;24.77;11.60;;;;;;;5.28;46.53;99091.80;1711094;84;21191;-79
2021/03/22 09:58:41;;;;;;;21.62;12.15;;;;;;;5.33;46.42;99090.53;1716935;81;21157;-79
2021/03/22 10:01:35;;;;;;;22.45;12.25;;;;;;;5.41;46.55;99083.89;1684725;84;21173;-80
2021/03/22 10:04:17;;;;;;;19.48;11.57;;;;;;;5.45;47.61;99075.02;1710129;81;21621;-79
2021/03/22 10:07:09;;;;;;;26.82;13.00;;;;;;;5.56;47.34;99070.59;1710930;84;21815;-80
2021/03/22 10:09:42;;;;;;;28.10;12.28;;;;;;;5.51;46.76;99065.91;1739147;81;21173;-79
2021/03/22 10:12:31;;;;;;;24.10;11.73;;;;;;;5.39;47.51;99067.83;1750538;82;21157;-80
2021/03/22 10:15:15;;;;;;;;;;;;;;;5.30;46.60;99063.88;1712836;82;21611;-82
2021/03/22 10:18:04;;;;;;;28.70;12.75;;;;;;;5.10;45.92;99061.63;1698929;84;20189;-81
2021/03/22 10:20:42;;;;;;;22.58;12.98;;;;;;;5.01;47.76;99050.02;1709849;81;21779;-80
2021/03/22 10:23:27;;;;;;;22.25;11.65;;;;;;;5.11;45.90;99050.22;1723860;82;21124;-83
2021/03/22 10:26:18;;;;;;;22.02;12.13;;;;;;;5.25;44.03;99049.39;1740495;82;21406;-81
2021/03/22 10:28:46;;;;;;;35.50;12.65;;;;;;;5.32;45.04;99040.04;1697898;82;21546;-81
2021/03/22 10:31:24;;;;;;;24.05;13.25;;;;;;;5.45;46.51;99042.45;1730402;81;21684;-80
2021/03/22 10:34:00;;;;;;;20.88;11.57;;;;;;;5.50;46.80;99038.99;1731096;82;21152;-79
2021/03/22 10:36:36;;;;;;;19.02;11.12;;;;;;;5.52;45.06;99038.20;1711833;81;21194;-81
2021/03/22 10:39:07;;;;;;;24.77;11.28;;;;;;;5.54;46.06;99032.02;1711109;83;21190;-83
2021/03/22 10:41:41;;;;;;;23.73;10.88;;;;;;;5.66;44.89;99026.81;1702601;81;21766;-83
2021/03/22 10:44:22;;;;;;;15.72;9.23;;;;;;;5.76;43.18;99024.25;1740415;82;21161;-79
2021/03/22 10:47:14;;;;;;;20.25;10.23;;;;;;;5.75;40.94;99015.81;1716494;82;21616;-79
2021/03/22 10:49:42;;;;;;;20.95;11.08;;;;;;;5.82;42.60;99012.91;1710978;84;21161;-80
2021/03/22 10:52:26;;;;;;;23.15;11.25;;;;;;;5.75;41.69;99014.45;1692713;83;21226;-80
2021/03/22 10:54:54;;;;;;;19.75;11.15;;;;;;;5.78;42.93;99014.49;1718293;83;21181;-82
2021/03/22 10:57:34;;;;;;;25.80;10.93;;;;;;;5.86;44.02;99007.86;1708090;82;21180;-82
2021/03/22 11:00:10;;;;;;;25.08;9.68;;;;;;;6.00;43.28;98998.27;1692791;83;21191;-81
2021/03/22 11:02:41;;;;;;;17.67;9.43;;;;;;;6.10;39.51;98994.34;1718936;82;21156;-80
2021/03/22 11:05:13;;;;;;;17.95;9.03;;;;;;;6.12;39.63;98996.30;1717431;83;21180;-81
2021/03/22 11:07:42;;;;;;;16.30;9.03;;;;;;;6.14;37.96;98990.91;1739913;81;21189;-81
2021/03/22 11:10:18;;;;;;;21.52;9.60;;;;;;;6.15;38.00;98984.91;1728865;83;21290;-80
2021/03/22 11:12:48;;;;;;;20.08;10.68;;;;;;;6.08;37.97;98981.56;1720826;81;21605;-80
2021/03/22 11:15:33;;;;;;;17.00;10.38;;;;;;;6.17;40.63;98983.59;1713628;83;21332;-80
2021/03/22 11:18:07;;;;;;;18.10;10.28;;;;;;;6.29;39.97;98975.34;1701370;82;21118;-80
2021/03/22 11:20:43;;;;;;;16.05;9.85;;;;;;;6.39;40.30;98971.39;1716359;82;21185;-81
2021/03/22 11:23:41;;;;;;;20.08;10.72;;;;;;;6.50;40.86;98970.45;1728357;81;21292;-80
2021/03/22 11:26:20;;;;;;;17.12;9.93;;;;;;;6.61;41.05;98965.41;1713543;84;21589;-79
2021/03/22 11:28:50;;;;;;;19.95;10.35;;;;;;;6.68;40.57;98962.51;1730110;81;21189;-79
2021/03/22 11:31:30;;;;;;;32.20;11.40;;;;;;;6.69;40.98;98965.49;1743320;82;21201;-79
2021/03/22 11:34:23;;;;;;;22.50;11.03;;;;;;;6.76;41.66;98956.59;1700681;83;21225;-80
2021/03/22 11:37:02;;;;;;;17.48;10.38;;;;;;;6.85;42.00;98955.91;1706103;83;21257;-79
2021/03/22 11:39:33;;;;;;;17.48;9.90;;;;;;;6.89;40.43;98953.47;1695628;81;21658;-81
2021/03/22 11:42:09;;;;;;;23.90;11.12;;;;;;;6.85;39.81;98957.80;1717897;83;21622;-80
2021/03/22 11:44:38;;;;;;;18.12;11.48;;;;;;;6.78;40.62;98957.98;1715057;81;21169;-80
2021/03/22 11:47:36;;;;;;;20.92;11.48;;;;;;;6.82;40.50;98964.56;1713529;84;21640;-82
2021/03/22 11:50:33;;;;;;;20.08;10.08;;;;;;;6.87;41.02;98960.55;1725588;81;21569;-80
2021/03/22 11:53:19;;;;;;;34.35;11.15;;;;;;;6.91;40.63;98968.46;1731069;83;21236;-82
2021/03/22 11:55:54;;;;;;;18.42;10.30;;;;;;;7.00;41.21;98966.94;1715827;81;21535;-81
2021/03/22 11:58:38;;;;;;;20.45;10.90;;;;;;;7.02;41.38;98961.23;1718223;83;21300;-78
2021/03/22 12:01:22;;;;;;;19.92;9.53;;;;;;;7.02;40.85;98961.23;1714451;81;21267;-80
2021/03/22 12:04:07;;;;;;;23.15;10.50;;;;;;;6.98;40.09;98965.55;1710129;84;21141;-80
2021/03/22 12:06:57;;;;;;;20.48;10.10;;;;;;;6.66;41.50;98966.82;1699263;81;21176;-80
2021/03/22 12:09:26;;;;;;;36.98;10.53;;;;;;;6.58;41.30;98965.91;1724010;82;21196;-80
2021/03/22 12:11:55;;;;;;;32.93;10.50;;;;;;;6.50;41.45;98962.30;1737883;80;21116;-80
2021/03/22 12:14:24;;;;;;;25.72;9.70;;;;;;;6.44;41.72;98961.94;1739094;81;21240;-81
2021/03/22 12:17:04;;;;;;;22.73;10.25;;;;;;;6.35;41.23;98962.08;1739219;80;21160;-81